createdAt,value
2022-08-11T00:01:06.758Z,26.97
2022-08-11T00:03:43.153Z,26.89
2022-08-11T00:06:13.937Z,26.88
2022-08-11T00:08:42.435Z,26.98
2022-08-11T00:11:12.506Z,26.96
2022-08-11T00:13:45.314Z,26.94
2022-08-11T00:18:46.353Z,26.95
2022-08-11T00:21:14.057Z,26.93
2022-08-11T00:23:47.705Z,26.93
2022-08-11T00:26:15.549Z,26.91
2022-08-11T00:28:43.228Z,26.91
2022-08-11T00:31:21.980Z,26.90
2022-08-11T00:33:50.942Z,26.90
2022-08-11T00:36:25.360Z,26.85
2022-08-11T00:38:54.464Z,26.89
2022-08-11T00:41:42.324Z,26.88
2022-08-11T00:44:21.249Z,26.88
2022-08-11T00:47:09.736Z,26.87
2022-08-11T00:49:51.797Z,26.86
2022-08-11T00:52:44.640Z,26.85
2022-08-11T00:55:23.699Z,26.85
2022-08-11T00:58:11.834Z,26.85
2022-08-11T01:01:15.973Z,26.83
2022-08-11T01:04:01.286Z,26.81
2022-08-11T01:07:05.740Z,26.81
2022-08-11T01:10:07.582Z,26.79
2022-08-11T01:12:44.810Z,26.79
2022-08-11T01:15:33.167Z,26.79
2022-08-11T01:18:30.816Z,26.77
2022-08-11T01:21:15.982Z,26.77
2022-08-11T01:24:16.504Z,26.77
2022-08-11T01:27:19.781Z,26.77
2022-08-11T01:30:07.385Z,26.75
2022-08-11T01:33:11.757Z,26.75
2022-08-11T01:35:50.361Z,26.74
2022-08-11T01:38:32.022Z,26.75
2022-08-11T01:41:13.976Z,26.74
2022-08-11T01:44:11.347Z,26.73
2022-08-11T01:46:50.368Z,26.70
2022-08-11T01:50:08.683Z,26.71
2022-08-11T01:52:35.067Z,26.68
2022-08-11T01:55:10.707Z,26.70
2022-08-11T01:57:55.316Z,26.70
2022-08-11T02:02:53.830Z,26.69
2022-08-11T02:06:30.270Z,26.68
2022-08-11T02:10:26.821Z,26.67
2022-08-11T02:13:35.645Z,26.67
2022-08-11T02:16:12.938Z,26.65
2022-08-11T02:19:03.964Z,26.65
2022-08-11T02:22:19.160Z,26.65
2022-08-11T02:24:55.469Z,26.61
2022-08-11T02:27:28.009Z,26.65
2022-08-11T02:30:16.649Z,26.64
2022-08-11T02:33:20.864Z,26.62
2022-08-11T02:36:08.891Z,26.62
2022-08-11T02:39:03.736Z,26.61
2022-08-11T02:42:34.890Z,26.60
2022-08-11T02:45:28.708Z,26.60
2022-08-11T02:48:28.152Z,26.59
2022-08-11T02:51:14.705Z,26.59
2022-08-11T02:54:07.206Z,26.59
2022-08-11T02:56:54.592Z,26.57
2022-08-11T02:59:46.112Z,26.58
2022-08-11T03:02:46.608Z,26.56
2022-08-11T03:05:37.309Z,26.55
2022-08-11T03:08:25.548Z,26.54
2022-08-11T03:11:30.233Z,26.54
2022-08-11T03:14:28.325Z,26.54
2022-08-11T03:17:03.096Z,26.53
2022-08-11T03:19:57.344Z,26.54
2022-08-11T03:22:38.822Z,26.54
2022-08-11T03:25:12.863Z,26.53
2022-08-11T03:28:25.989Z,26.53
2022-08-11T03:31:10.111Z,26.53
2022-08-11T03:34:08.087Z,26.53
2022-08-11T03:37:17.151Z,26.10
2022-08-11T03:40:03.526Z,26.53
2022-08-11T03:43:02.845Z,26.51
2022-08-11T03:45:58.428Z,26.50
2022-08-11T03:48:43.286Z,26.23
2022-08-11T03:51:45.027Z,26.50
2022-08-11T03:54:39.872Z,26.50
2022-08-11T03:57:35.941Z,26.48
2022-08-11T04:00:39.024Z,26.49
2022-08-11T04:03:20.669Z,26.48
2022-08-11T04:06:09.220Z,26.48
2022-08-11T04:08:54.651Z,26.46
2022-08-11T04:11:33.291Z,26.47
2022-08-11T04:14:46.976Z,26.47
2022-08-11T04:17:45.424Z,26.47
2022-08-11T04:20:49.568Z,26.46
2022-08-11T04:24:34.813Z,26.46
2022-08-11T04:26:34.134Z,26.46
2022-08-11T04:30:03.365Z,26.46
2022-08-11T04:32:59.884Z,26.45
2022-08-11T04:35:32.613Z,26.44
2022-08-11T04:38:32.505Z,26.45
2022-08-11T04:41:27.997Z,26.44
2022-08-11T04:44:18.695Z,26.44
2022-08-11T04:46:59.583Z,26.44
2022-08-11T04:50:39.093Z,26.44
2022-08-11T04:54:08.695Z,26.43
2022-08-11T04:56:56.730Z,26.44
2022-08-11T05:00:01.021Z,26.44
2022-08-11T05:02:56.936Z,26.42
2022-08-11T05:05:59.844Z,26.44
2022-08-11T05:08:47.690Z,26.44
2022-08-11T05:11:36.008Z,26.45
2022-08-11T05:14:37.944Z,26.45
2022-08-11T05:17:29.591Z,26.39
2022-08-11T05:20:14.848Z,26.40
2022-08-11T05:23:09.616Z,26.44
2022-08-11T05:26:42.636Z,26.47
2022-08-11T05:29:19.296Z,26.48
2022-08-11T05:32:19.504Z,26.49
2022-08-11T05:34:56.718Z,26.49
2022-08-11T05:37:29.041Z,26.50
2022-08-11T05:40:40.377Z,26.52
2022-08-11T05:43:31.741Z,26.52
2022-08-11T05:46:19.962Z,26.51
2022-08-11T05:49:09.720Z,26.53
2022-08-11T05:52:05.317Z,26.51
2022-08-11T05:55:06.391Z,26.54
2022-08-11T05:57:48.663Z,26.55
2022-08-11T06:00:19.494Z,26.57
2022-08-11T06:02:57.604Z,26.57
2022-08-11T06:07:49.310Z,26.60
2022-08-11T06:14:46.280Z,26.60
2022-08-11T06:17:17.023Z,26.60
2022-08-11T06:19:47.751Z,26.61
2022-08-11T06:22:20.954Z,26.62
2022-08-11T06:24:55.869Z,26.62
2022-08-11T06:27:24.503Z,26.62
2022-08-11T06:29:54.795Z,26.63
2022-08-11T06:32:27.738Z,26.64
2022-08-11T06:35:12.685Z,26.63
2022-08-11T06:38:21.262Z,26.55
2022-08-11T06:41:10.474Z,26.64
2022-08-11T06:43:56.068Z,26.64
2022-08-11T06:46:53.180Z,26.65
2022-08-11T06:49:50.693Z,26.65
2022-08-11T06:52:35.706Z,26.66
2022-08-11T06:55:55.427Z,26.66
2022-08-11T06:58:16.486Z,26.66
2022-08-11T07:00:45.315Z,26.66
2022-08-11T07:03:16.727Z,26.67
2022-08-11T07:05:51.952Z,26.67
2022-08-11T07:09:15.101Z,26.68
2022-08-11T07:12:21.458Z,26.68
2022-08-11T07:15:15.486Z,26.63
2022-08-11T07:17:49.786Z,26.68
2022-08-11T07:20:36.969Z,26.65
2022-08-11T07:23:27.488Z,26.69
2022-08-11T07:26:15.196Z,26.68
2022-08-11T07:28:56.762Z,26.70
2022-08-11T07:31:42.165Z,26.69
2022-08-11T07:34:18.143Z,26.69
2022-08-11T07:36:54.521Z,26.69
2022-08-11T07:39:48.377Z,26.70
2022-08-11T07:42:20.507Z,26.70
2022-08-11T07:45:08.267Z,26.69
2022-08-11T07:47:55.670Z,26.70
2022-08-11T07:50:41.297Z,26.70
2022-08-11T07:53:08.717Z,26.70
2022-08-11T07:55:51.837Z,26.67
2022-08-11T07:58:45.712Z,26.71
2022-08-11T08:01:41.328Z,26.71
2022-08-11T08:04:30.591Z,26.70
2022-08-11T08:07:19.291Z,26.71
2022-08-11T08:10:07.147Z,26.71
2022-08-11T08:12:53.369Z,26.70
2022-08-11T08:15:40.655Z,26.65
2022-08-11T08:18:26.900Z,26.72
2022-08-11T08:20:56.918Z,26.72
2022-08-11T08:23:35.740Z,26.73
2022-08-11T08:26:04.856Z,26.75
2022-08-11T08:28:33.798Z,26.76
2022-08-11T08:31:01.075Z,26.76
2022-08-11T08:33:31.081Z,26.78
2022-08-11T08:36:12.702Z,26.79
2022-08-11T08:38:47.707Z,26.68
2022-08-11T08:41:22.890Z,26.79
2022-08-11T08:43:55.831Z,26.80
2022-08-11T08:46:30.250Z,26.78
2022-08-11T08:49:01.988Z,26.79
2022-08-11T08:51:58.759Z,26.80
2022-08-11T08:54:34.009Z,26.81
2022-08-11T08:57:05.217Z,26.81
2022-08-11T08:59:47.664Z,26.79
2022-08-11T09:02:20.546Z,26.83
2022-08-11T09:05:02.521Z,26.83
2022-08-11T09:07:35.430Z,26.82
2022-08-11T09:10:08.468Z,26.82
2022-08-11T09:12:38.894Z,26.81
2022-08-11T09:15:09.137Z,26.84
2022-08-11T09:17:40.088Z,26.85
2022-08-11T09:20:15.012Z,26.87
2022-08-11T09:26:11.888Z,26.89
2022-08-11T09:28:39.188Z,26.90
2022-08-11T09:31:06.944Z,26.91
2022-08-11T09:33:34.180Z,26.93
2022-08-11T09:36:25.303Z,26.92
2022-08-11T09:39:11.978Z,26.93
2022-08-11T09:42:01.845Z,26.94
2022-08-11T09:44:46.400Z,26.95
2022-08-11T09:47:20.840Z,26.95
2022-08-11T09:49:49.028Z,26.95
2022-08-11T10:09:24.213Z,26.44
2022-08-11T10:11:58.693Z,26.53
2022-08-11T10:14:46.400Z,26.62
2022-08-11T10:17:16.084Z,26.70
2022-08-11T10:20:03.946Z,26.75
2022-08-11T10:22:51.895Z,26.75
2022-08-11T10:25:37.715Z,26.83
2022-08-11T10:28:28.775Z,26.87
2022-08-11T10:31:13.730Z,26.90
2022-08-11T10:34:03.838Z,26.92
2022-08-11T10:37:03.003Z,26.93
2022-08-11T10:39:29.933Z,26.94
2022-08-11T10:42:25.825Z,26.92
2022-08-11T10:45:25.818Z,26.94
2022-08-11T10:47:55.594Z,26.94
2022-08-11T10:50:42.039Z,26.95
2022-08-11T10:53:28.450Z,26.95
2022-08-11T10:56:15.256Z,26.97
2022-08-11T10:58:47.722Z,26.97
2022-08-11T11:01:24.368Z,26.99
2022-08-11T11:03:58.012Z,26.99
2022-08-11T11:06:43.968Z,27.02
2022-08-11T11:09:32.753Z,26.92
2022-08-11T11:12:48.689Z,27.02
2022-08-11T11:15:38.149Z,27.03
2022-08-11T11:18:09.462Z,27.02
2022-08-11T11:20:49.043Z,27.02
2022-08-11T11:23:38.256Z,27.03
2022-08-11T11:26:27.334Z,27.03
2022-08-11T11:29:11.493Z,27.03
2022-08-11T11:31:50.490Z,27.02
2022-08-11T11:34:53.662Z,27.02
2022-08-11T11:37:23.047Z,27.02
2022-08-11T11:39:55.142Z,27.03
2022-08-11T11:42:22.115Z,27.02
2022-08-11T11:44:49.407Z,27.02
2022-08-11T11:47:21.753Z,27.02
2022-08-11T11:49:49.914Z,27.03
2022-08-11T11:52:19.679Z,27.03
2022-08-11T11:54:53.383Z,27.03
2022-08-11T11:57:40.516Z,26.98
2022-08-11T12:00:33.497Z,27.05
2022-08-11T12:03:03.699Z,27.05
2022-08-11T12:05:34.237Z,27.05
2022-08-11T12:08:18.634Z,27.07
2022-08-11T12:10:45.402Z,27.06
2022-08-11T12:13:32.060Z,27.07
2022-08-11T12:16:31.639Z,27.09
2022-08-11T12:18:53.524Z,27.09
2022-08-11T12:21:21.932Z,27.09
2022-08-11T12:24:08.820Z,27.09
2022-08-11T12:27:01.459Z,27.09
2022-08-11T12:29:35.393Z,27.10
2022-08-11T12:32:07.213Z,27.10
2022-08-11T12:34:34.140Z,27.10
2022-08-11T12:37:06.911Z,27.03
2022-08-11T12:40:10.937Z,27.12
2022-08-11T12:43:24.224Z,27.14
2022-08-11T12:46:14.625Z,27.14
2022-08-11T12:49:04.455Z,27.15
2022-08-11T12:52:10.996Z,27.15
2022-08-11T12:54:52.264Z,27.16
2022-08-11T12:57:55.776Z,27.17
2022-08-11T13:00:42.584Z,27.15
2022-08-11T13:03:29.812Z,27.15
2022-08-11T13:05:59.624Z,27.14
2022-08-11T13:08:31.749Z,27.12
2022-08-11T13:11:19.448Z,27.13
2022-08-11T13:13:55.085Z,27.11
2022-08-11T13:16:28.057Z,27.11
2022-08-11T13:18:57.428Z,27.11
2022-08-11T13:21:24.656Z,27.11
2022-08-11T13:24:01.233Z,27.11
2022-08-11T13:26:46.627Z,27.12
2022-08-11T13:29:17.903Z,27.12
2022-08-11T13:31:45.750Z,27.12
2022-08-11T13:34:12.957Z,27.11
2022-08-11T13:36:40.754Z,27.09
2022-08-11T13:39:09.503Z,27.08
2022-08-11T13:44:27.155Z,27.04
2022-08-11T13:46:58.077Z,27.04
2022-08-11T13:49:26.792Z,27.03
2022-08-11T13:51:55.606Z,27.02
2022-08-11T13:54:25.515Z,27.01
2022-08-11T13:56:56.068Z,27.01
2022-08-11T13:59:30.840Z,27.00
2022-08-11T14:02:22.978Z,27.00
2022-08-11T14:05:04.159Z,26.94
2022-08-11T14:07:45.553Z,27.00
2022-08-11T14:10:14.738Z,26.99
2022-08-11T14:13:05.216Z,27.00
2022-08-11T14:15:34.057Z,27.00
2022-08-11T14:18:07.525Z,26.97
2022-08-11T14:20:58.817Z,26.98
2022-08-11T14:23:41.669Z,26.97
2022-08-11T14:26:29.081Z,26.98
2022-08-11T14:29:06.039Z,26.96
2022-08-11T14:31:35.626Z,26.96
2022-08-11T14:34:06.471Z,26.96
2022-08-11T14:36:40.741Z,26.97
2022-08-11T14:39:13.395Z,26.98
2022-08-11T14:42:10.802Z,26.99
2022-08-11T14:45:01.826Z,27.00
2022-08-11T14:47:31.857Z,27.01
2022-08-11T14:50:11.623Z,27.03
2022-08-11T14:52:44.624Z,27.03
2022-08-11T14:55:31.945Z,27.04
2022-08-11T14:58:01.726Z,27.04
2022-08-11T15:00:28.932Z,27.05
2022-08-11T15:03:12.671Z,27.06
2022-08-11T15:05:41.788Z,27.06
2022-08-11T15:08:51.216Z,27.06
2022-08-11T15:11:39.089Z,27.07
2022-08-11T15:14:08.499Z,27.07
2022-08-11T15:16:56.735Z,27.07
2022-08-11T15:19:25.984Z,26.99
2022-08-11T15:22:11.161Z,27.07
2022-08-11T15:24:38.449Z,27.05
2022-08-11T15:27:30.276Z,27.05
2022-08-11T15:30:32.074Z,27.05
2022-08-11T15:33:20.286Z,26.64
2022-08-11T15:36:05.744Z,27.02
2022-08-11T15:38:36.359Z,27.01
2022-08-11T15:41:25.226Z,27.02
2022-08-11T15:44:13.003Z,27.02
2022-08-11T15:46:50.072Z,27.03
2022-08-11T15:50:11.665Z,27.03
2022-08-11T15:52:19.382Z,27.02
2022-08-11T15:54:48.417Z,27.03
2022-08-11T15:57:39.940Z,27.00
2022-08-11T16:00:28.443Z,27.02
2022-08-11T16:03:16.828Z,27.03
2022-08-11T16:05:44.919Z,27.04
2022-08-11T16:08:15.336Z,27.04
2022-08-11T16:10:44.800Z,27.05
2022-08-11T16:13:14.852Z,27.06
2022-08-11T16:16:06.131Z,27.06
2022-08-11T16:18:41.980Z,27.06
2022-08-11T16:21:34.371Z,27.02
2022-08-11T16:24:09.347Z,27.07
2022-08-11T16:27:08.629Z,27.08
2022-08-11T16:29:43.614Z,27.07
2022-08-11T16:32:18.157Z,27.08
2022-08-11T16:35:06.755Z,27.05
2022-08-11T16:37:53.764Z,27.08
2022-08-11T16:40:22.537Z,27.08
2022-08-11T16:43:29.586Z,27.09
2022-08-11T16:46:17.033Z,27.08
2022-08-11T16:48:47.960Z,27.08
2022-08-11T16:51:15.108Z,26.99
2022-08-11T16:53:49.022Z,27.05
2022-08-11T16:56:42.084Z,27.07
2022-08-11T16:59:18.246Z,27.03
2022-08-11T17:01:55.808Z,27.07
2022-08-11T17:05:05.845Z,27.02
2022-08-11T17:07:51.545Z,27.05
2022-08-11T17:10:54.763Z,26.95
2022-08-11T17:13:31.632Z,27.03
2022-08-11T17:16:08.438Z,26.90
2022-08-11T17:18:44.647Z,26.93
2022-08-11T17:21:33.625Z,26.99
2022-08-11T17:24:10.844Z,26.94
2022-08-11T17:26:56.896Z,26.99
2022-08-11T17:29:54.921Z,26.93
2022-08-11T17:32:57.093Z,27.01
2022-08-11T17:35:34.889Z,27.03
2022-08-11T17:38:18.800Z,27.06
2022-08-11T17:41:05.626Z,27.08
2022-08-11T17:43:51.752Z,27.09
2022-08-11T17:46:38.848Z,27.10
2022-08-11T17:49:07.803Z,27.10
2022-08-11T17:51:56.069Z,27.12
2022-08-11T17:54:42.947Z,27.12
2022-08-11T17:57:31.689Z,27.12
2022-08-11T18:00:00.547Z,27.10
2022-08-11T18:02:59.309Z,27.12
2022-08-11T18:05:28.880Z,27.11
2022-08-11T18:08:17.277Z,27.13
2022-08-11T18:11:04.527Z,27.12
2022-08-11T18:13:56.957Z,27.12
2022-08-11T18:16:42.715Z,27.13
2022-08-11T18:19:30.721Z,27.09
2022-08-11T18:22:28.219Z,27.14
2022-08-11T18:25:20.169Z,27.06
2022-08-11T18:28:09.437Z,27.14
2022-08-11T18:31:03.111Z,27.13
2022-08-11T18:34:09.246Z,27.13
2022-08-11T18:37:00.049Z,27.14
2022-08-11T18:39:54.730Z,27.13
2022-08-11T18:42:42.852Z,27.13
2022-08-11T18:45:33.057Z,27.12
2022-08-11T18:48:37.141Z,27.09
2022-08-11T18:51:30.584Z,27.07
2022-08-11T18:54:26.590Z,27.07
2022-08-11T18:57:15.103Z,27.07
2022-08-11T19:00:02.434Z,27.06
2022-08-11T19:02:50.959Z,26.97
2022-08-11T19:06:35.578Z,27.06
2022-08-11T19:08:58.815Z,27.06
2022-08-11T19:11:45.661Z,27.06
2022-08-11T19:14:32.147Z,27.06
2022-08-11T19:17:44.080Z,27.06
2022-08-11T19:20:42.233Z,27.06
2022-08-11T19:23:30.082Z,27.06
2022-08-11T19:26:17.636Z,27.05
2022-08-11T19:29:05.670Z,27.05
2022-08-11T19:31:52.469Z,27.04
2022-08-11T19:34:42.913Z,27.04
2022-08-11T19:37:29.785Z,27.03
2022-08-11T19:40:23.369Z,27.04
2022-08-11T19:43:16.900Z,27.03
2022-08-11T19:46:15.111Z,27.04
2022-08-11T19:49:03.475Z,27.03
2022-08-11T19:51:53.842Z,27.05
2022-08-11T19:54:43.579Z,27.04
2022-08-11T19:57:29.948Z,27.04
2022-08-11T20:00:16.715Z,27.04
2022-08-11T20:03:08.732Z,26.98
2022-08-11T20:05:59.558Z,27.05
2022-08-11T20:08:47.989Z,27.06
2022-08-11T20:11:34.740Z,27.08
2022-08-11T20:14:21.424Z,27.09
2022-08-11T20:17:07.453Z,27.06
2022-08-11T20:19:57.203Z,27.10
2022-08-11T20:22:45.269Z,27.10
2022-08-11T20:25:31.718Z,26.84
2022-08-11T20:28:17.122Z,27.00
2022-08-11T20:31:04.349Z,27.08
2022-08-11T20:33:52.108Z,27.05
2022-08-11T20:36:37.509Z,27.10
2022-08-11T20:41:58.312Z,27.10
2022-08-11T20:44:47.792Z,26.96
2022-08-11T20:47:59.040Z,27.10
2022-08-11T20:50:46.007Z,27.11
2022-08-11T20:53:36.052Z,27.09
2022-08-11T20:56:28.822Z,27.09
2022-08-11T20:59:18.467Z,27.09
2022-08-11T21:02:09.879Z,27.08
2022-08-11T21:05:00.056Z,27.08
2022-08-11T21:07:57.241Z,27.08
2022-08-11T21:10:51.754Z,27.03
2022-08-11T21:13:41.407Z,27.05
2022-08-11T21:16:32.101Z,27.08
2022-08-11T21:19:59.752Z,27.07
2022-08-11T21:22:42.401Z,27.07
2022-08-11T21:25:46.872Z,27.07
2022-08-11T21:28:34.812Z,27.08
2022-08-11T21:31:22.216Z,27.07
2022-08-11T21:34:09.653Z,27.03
2022-08-11T21:36:55.451Z,27.09
2022-08-11T21:39:42.319Z,27.08
2022-08-11T21:42:29.462Z,27.08
2022-08-11T21:45:16.837Z,27.07
2022-08-11T21:48:03.607Z,27.07
2022-08-11T21:50:48.900Z,27.08
2022-08-11T21:53:34.692Z,27.07
2022-08-11T21:56:20.503Z,27.07
2022-08-11T21:59:09.916Z,27.07
2022-08-11T22:01:55.523Z,27.06
2022-08-11T22:04:42.847Z,27.07
2022-08-11T22:07:31.885Z,27.08
2022-08-11T22:10:40.440Z,27.07
2022-08-11T22:13:29.922Z,27.07
2022-08-11T22:16:15.660Z,27.09
2022-08-11T22:19:01.462Z,27.08
2022-08-11T22:22:02.349Z,27.07
2022-08-11T22:24:51.994Z,27.08
2022-08-11T22:27:38.420Z,27.08
2022-08-11T22:30:29.408Z,27.09
2022-08-11T22:33:24.484Z,27.08
2022-08-11T22:36:14.609Z,27.00
2022-08-11T22:39:01.452Z,27.09
2022-08-11T22:41:47.363Z,27.08
2022-08-11T22:44:32.588Z,27.08
2022-08-11T22:47:19.987Z,27.07
2022-08-11T22:50:13.712Z,27.08
2022-08-11T22:53:00.206Z,27.05
2022-08-11T22:55:46.531Z,27.08
2022-08-11T22:58:33.856Z,27.07
2022-08-11T23:01:20.284Z,27.06
2022-08-11T23:04:06.519Z,27.06
2022-08-11T23:06:57.358Z,27.05
2022-08-11T23:09:43.839Z,27.02
2022-08-11T23:12:31.228Z,27.04
2022-08-11T23:15:18.016Z,27.02
2022-08-11T23:18:03.854Z,26.93
2022-08-11T23:20:50.758Z,27.01
2022-08-11T23:23:38.955Z,27.02
2022-08-11T23:26:24.722Z,27.00
2022-08-11T23:31:50.995Z,27.02
2022-08-11T23:35:04.441Z,27.01
2022-08-11T23:37:48.137Z,27.00
2022-08-11T23:40:33.711Z,26.99
2022-08-11T23:43:19.454Z,26.98
2022-08-11T23:46:04.722Z,26.98
2022-08-11T23:48:50.965Z,26.90
2022-08-11T23:51:41.305Z,27.00
2022-08-11T23:54:28.108Z,26.98
2022-08-11T23:59:39.437Z,26.97
